Sarah — WDI4859 — position and weather

sailwx.info

Track history (hours):
 
Tides and Currents Weather Stations Pressure Air Temp Water Temp Dewpoint Dewpoint Depression Visibility Wind Speed Wind Dir Waves Ship Positions

Sarah

Owner: Brusco Tug & Barge, Inc., Longview, WA. More information available from US FCC via Universal Licensing System and Coast Guard Vessel Documentation Center.

Last reported at 2017-Sep-21 17:30 UTC. Time now 2017-Sep-21 17:59 UTC.
Position N 33°46' W 118°16'.

Length 24 m.

Type: Tug. MMSI: 367702770.

Date/timePositionNaut miles runAvg speedWind from/ knotsBaromVisibWave heightAir tempDewpointWater temp
2017-Sep-21 17:30N 33°46' W 118°16'0 0.2
2017-Sep-21 17:00N 33°46' W 118°16'0 0.6
2017-Sep-21 16:30N 33°45' W 118°16'2 4.2
2017-Sep-21 15:59N 33°43' W 118°16'3 5.6
2017-Sep-21 15:28N 33°44' W 118°13'0 0.2
2017-Sep-21 15:00N 33°44' W 118°13'3 5.2
2017-Sep-21 14:27N 33°44' W 118°16'2 4.0
2017-Sep-21 13:57N 33°46' W 118°16'0 0.0
2017-Sep-21 13:28N 33°46' W 118°16'1 1.5
2017-Sep-21 13:00N 33°45' W 118°16'2 5.0
2017-Sep-21 12:30N 33°43' W 118°15'4 8.6
2017-Sep-21 12:00N 33°44' W 118°10'2 5.0
2017-Sep-21 11:30N 33°44' W 118°13'2 3.7
2017-Sep-21 11:00N 33°46' W 118°14'0 0.1
2017-Sep-21 10:29N 33°46' W 118°14'0 0.1
2017-Sep-21 09:59N 33°46' W 118°14'1 2.1
2017-Sep-21 09:29N 33°45' W 118°13'3 6.3
2017-Sep-21 08:57N 33°43' W 118°16'1 0.2
2017-Sep-21 03:49N 33°44' W 118°17'0 0.0
2017-Sep-21 03:30N 33°44' W 118°17'0 0.0
2017-Sep-21 03:00N 33°44' W 118°17'0 0.0
2017-Sep-21 02:30N 33°44' W 118°17'0 0.0
2017-Sep-21 02:00N 33°44' W 118°17'0 0.0
2017-Sep-21 01:30N 33°44' W 118°17'0 0.0
2017-Sep-21 01:00N 33°44' W 118°17'0 0.0
2017-Sep-21 00:30N 33°44' W 118°17'0 0.0
2017-Sep-21 00:00N 33°44' W 118°17'0 0.0
2017-Sep-20 23:30N 33°44' W 118°17'0 0.0
2017-Sep-20 23:00N 33°44' W 118°17'0 0.0
2017-Sep-20 22:30N 33°44' W 118°17'0 0.0
2017-Sep-20 22:00N 33°44' W 118°17'0 0.0
2017-Sep-20 21:30N 33°44' W 118°17'0 0.0
2017-Sep-20 21:00N 33°44' W 118°17'0 0.0
2017-Sep-20 20:30N 33°44' W 118°17'0 0.0
2017-Sep-20 20:00N 33°44' W 118°17'0 0.9
2017-Sep-20 19:30N 33°44' W 118°17'1 2.4
2017-Sep-20 19:00N 33°45' W 118°17'1 1.2
2017-Sep-20 18:30N 33°46' W 118°16'0 0.7
2017-Sep-20 18:00N 33°46' W 118°17'1 1.7
2017-Sep-20 17:30N 33°45' W 118°16'1 2.5
2017-Sep-20 17:00N 33°44' W 118°17'0 0.0
2017-Sep-20 16:30N 33°44' W 118°17'0 0.0
2017-Sep-20 16:00N 33°44' W 118°17'0 0.0
2017-Sep-20 15:30N 33°44' W 118°17'0 0.0
2017-Sep-20 15:00N 33°44' W 118°17'0 0.0
2017-Sep-20 14:00N 33°44' W 118°17'0 0.0
2017-Sep-20 13:24N 33°44' W 118°17'0 0.0
2017-Sep-20 12:55N 33°44' W 118°17'0 0.0
2017-Sep-20 12:27N 33°44' W 118°17'0 0.0
2017-Sep-20 12:00N 33°44' W 118°17'0 0.0
2017-Sep-20 11:28N 33°44' W 118°17'0 0.0
2017-Sep-20 11:00N 33°44' W 118°17'0 0.0
2017-Sep-20 10:30N 33°44' W 118°17'0 0.0
2017-Sep-20 10:00N 33°44' W 118°17'0 0.0
2017-Sep-20 09:28N 33°44' W 118°17'0 0.0
2017-Sep-20 09:00N 33°44' W 118°17'0 0.0
2017-Sep-20 08:26N 33°44' W 118°17'0 0.0
2017-Sep-20 07:58N 33°44' W 118°17'0 0.0
2017-Sep-19 16:12N 33°44' W 118°17'0 0.0
2017-Sep-19 15:42N 33°44' W 118°17'0 0.0
2017-Sep-19 15:29N 33°44' W 118°17'0 0.0
2017-Sep-19 14:55N 33°44' W 118°17'0 0.0
2017-Sep-19 14:02N 33°44' W 118°17'0 0.0
2017-Sep-19 14:00N 33°44' W 118°17'0 0.0
2017-Sep-19 13:29N 33°44' W 118°17'5 2.2
2017-Sep-19 11:21N 33°44' W 118°11'4 8.4
2017-Sep-19 10:56N 33°43' W 118°15'1 0.1
2017-Sep-18 23:36N 33°44' W 118°17'0 3.3
2017-Sep-18 23:30N 33°44' W 118°17'3 5.4
2017-Sep-18 23:01N 33°46' W 118°14'1 1.4
2017-Sep-18 22:31N 33°46' W 118°13'1 2.1
2017-Sep-18 21:59N 33°45' W 118°13'2 4.9
2017-Sep-18 21:31N 33°44' W 118°11'0 0.4
2017-Sep-18 21:00N 33°44' W 118°11'2 3.1
2017-Sep-18 20:30N 33°45' W 118°12'1 2.7
2017-Sep-18 19:59N 33°44' W 118°11'1 2.4
2017-Sep-18 19:29N 33°44' W 118°13'2 4.9
2017-Sep-18 19:00N 33°46' W 118°15'1 1.8
2017-Sep-18 18:30N 33°46' W 118°16'0 0.3
2017-Sep-18 18:00N 33°46' W 118°16'1 2.6
2017-Sep-18 17:30N 33°45' W 118°17'2 4.6
2017-Sep-18 16:59N 33°43' W 118°15'0 0.0
2017-Sep-18 16:29N 33°43' W 118°15'2 3.3
2017-Sep-18 15:57N 33°44' W 118°16'0 0.2
2017-Sep-18 15:17N 33°44' W 118°17'0 0.0
2017-Sep-18 14:59N 33°44' W 118°17'0 0.0
2017-Sep-18 14:21N 33°44' W 118°17'0 0.0
2017-Sep-18 14:00N 33°44' W 118°17'0 0.0
2017-Sep-18 13:29N 33°44' W 118°17'0 0.0
2017-Sep-18 12:57N 33°44' W 118°17'3 5.1
2017-Sep-18 12:22N 33°43' W 118°13'1 2.9
2017-Sep-18 11:53N 33°45' W 118°12'3 4.7
2017-Sep-18 11:21N 33°43' W 118°14'2 0.2
2017-Sep-17 21:51N 33°44' W 118°17'2 6.5
2017-Sep-17 21:30N 33°43' W 118°14'2 4.3
2017-Sep-17 21:00N 33°44' W 118°12'1 1.2
2017-Sep-17 20:30N 33°44' W 118°13'1 2.1
2017-Sep-17 20:00N 33°44' W 118°12'3 6.7
2017-Sep-17 19:30N 33°43' W 118°15'1 2.4
2017-Sep-17 19:00N 33°44' W 118°16'0 0.0
2017-Sep-17 18:29N 33°44' W 118°16'0 0.2
2017-Sep-17 17:59N 33°44' W 118°17'0 0.0
2017-Sep-17 17:30N 33°44' W 118°17'0 0.0
2017-Sep-17 16:58N 33°44' W 118°17'0 0.0
2017-Sep-17 16:22N 33°44' W 118°17'0 0.0
2017-Sep-17 15:54N 33°44' W 118°17'0 0.0
2017-Sep-17 15:09N 33°44' W 118°17'0 0.0
2017-Sep-17 14:53N 33°44' W 118°17'0 0.0
2017-Sep-17 14:17N 33°44' W 118°17'0 0.0
2017-Sep-17 14:00N 33°44' W 118°17'0 0.0
2017-Sep-17 12:41N 33°44' W 118°17'0 0.0
2017-Sep-17 12:26N 33°44' W 118°17'0 0.0
2017-Sep-17 11:49N 33°44' W 118°17'0 0.0
2017-Sep-17 11:30N 33°44' W 118°17'0 0.0
2017-Sep-17 10:51N 33°44' W 118°17'0 0.0
2017-Sep-17 10:24N 33°44' W 118°17'0 0.0
2017-Sep-17 09:59N 33°44' W 118°17'0 0.0
2017-Sep-17 09:30N 33°44' W 118°17'0 0.0
2017-Sep-17 08:55N 33°44' W 118°17'0 0.0
2017-Sep-17 08:30N 33°44' W 118°17'0 0.0
2017-Sep-17 08:00N 33°44' W 118°17'0 0.0
2017-Sep-17 07:28N 33°44' W 118°17'0 0.0
2017-Sep-17 07:00N 33°44' W 118°17'0 0.0
2017-Sep-17 06:26N 33°44' W 118°17'0 0.0
2017-Sep-17 06:00N 33°44' W 118°17'0 0.0
2017-Sep-17 05:30N 33°44' W 118°17'0 0.0
2017-Sep-17 05:00N 33°44' W 118°17'0 0.0
2017-Sep-17 04:30N 33°44' W 118°17'0 0.0
2017-Sep-17 04:00N 33°44' W 118°17'0 0.0
2017-Sep-17 03:29N 33°44' W 118°17'0 0.0
2017-Sep-17 03:00N 33°44' W 118°17'0 0.0
2017-Sep-17 02:30N 33°44' W 118°17'0 0.0
2017-Sep-17 02:00N 33°44' W 118°17'0 0.0
2017-Sep-17 01:30N 33°44' W 118°17'0 0.0
2017-Sep-17 00:59N 33°44' W 118°17'0 0.0
2017-Sep-17 00:30N 33°44' W 118°17'0 0.0
2017-Sep-16 21:33N 33°44' W 118°17'0 0.0
2017-Sep-16 21:31N 33°44' W 118°17'0 0.0
2017-Sep-16 21:01N 33°44' W 118°17'1 2.1
2017-Sep-16 20:29N 33°43' W 118°16'3 6.7
2017-Sep-16 20:00N 33°45' W 118°12'0 0.0
2017-Sep-16 19:29N 33°45' W 118°12'2 2.8
2017-Sep-16 18:57N 33°44' W 118°11'2 4.2
2017-Sep-16 18:30N 33°45' W 118°13'0 0.0
2017-Sep-16 18:00N 33°45' W 118°13'0 0.0
2017-Sep-16 17:28N 33°45' W 118°13'0 1.1
2017-Sep-16 17:01N 33°45' W 118°13'0 0.2
2017-Sep-16 16:29N 33°45' W 118°13'1 2.7
2017-Sep-16 16:00N 33°44' W 118°13'1 0.7
2017-Sep-16 15:12N 33°44' W 118°12'3 2.8
2017-Sep-16 14:00N 33°44' W 118°17'0 0.0
2017-Sep-16 13:09N 33°44' W 118°17'0 0.0
2017-Sep-16 12:56N 33°44' W 118°17'0 0.0
2017-Sep-16 12:29N 33°44' W 118°17'0 0.0
2017-Sep-16 12:01N 33°44' W 118°17'0 0.0
2017-Sep-16 11:27N 33°44' W 118°17'0 0.0
2017-Sep-16 10:55N 33°44' W 118°17'0 0.0
2017-Sep-16 10:30N 33°44' W 118°17'0 0.0
2017-Sep-16 09:57N 33°44' W 118°17'0 0.0
2017-Sep-16 09:30N 33°44' W 118°17'0 0.0
2017-Sep-16 09:00N 33°44' W 118°17'0 0.0
2017-Sep-16 08:30N 33°44' W 118°17'0 0.0
2017-Sep-16 07:54N 33°44' W 118°17'0 0.0
2017-Sep-16 07:30N 33°44' W 118°17'0 0.0
2017-Sep-16 07:00N 33°44' W 118°17'0 0.0
2017-Sep-16 06:31N 33°44' W 118°17'0 0.0
2017-Sep-16 06:00N 33°44' W 118°17'0 0.0
2017-Sep-16 05:31N 33°44' W 118°17'0 0.0
2017-Sep-16 05:01N 33°44' W 118°17'0 0.0
2017-Sep-16 04:30N 33°44' W 118°17'0 0.0
2017-Sep-16 04:00N 33°44' W 118°17'0 0.0
2017-Sep-16 03:31N 33°44' W 118°17'0 0.0
2017-Sep-16 03:00N 33°44' W 118°17'0 0.0
2017-Sep-16 02:30N 33°44' W 118°17'3 5.7
2017-Sep-16 02:00N 33°44' W 118°13'1 2.9
2017-Sep-16 01:30N 33°45' W 118°15'0 0.0
2017-Sep-16 01:00N 33°45' W 118°15'1 2.6
2017-Sep-16 00:31N 33°45' W 118°13'3 6.0
2017-Sep-16 00:00N 33°44' W 118°16'0 0.3
2017-Sep-15 23:30N 33°44' W 118°17'0 0.0
2017-Sep-15 23:01N 33°44' W 118°17'0 0.0
2017-Sep-15 22:31N 33°44' W 118°17'0 0.0
2017-Sep-15 22:00N 33°44' W 118°17'0 0.0
2017-Sep-15 21:30N 33°44' W 118°17'0 0.0
2017-Sep-15 21:00N 33°44' W 118°17'0 0.0
2017-Sep-15 20:31N 33°44' W 118°17'0 0.0
2017-Sep-15 20:00N 33°44' W 118°17'0 0.0
2017-Sep-15 19:30N 33°44' W 118°17'0 0.0
2017-Sep-15 19:00N 33°44' W 118°17'0 0.0
2017-Sep-15 18:30N 33°44' W 118°17'0 0.0
2017-Sep-15 18:00N 33°44' W 118°17'0 0.0
2017-Sep-15 16:52N 33°44' W 118°17'0 0.0
2017-Sep-15 16:30N 33°44' W 118°17'0 0.0
2017-Sep-15 15:56N 33°44' W 118°17'0 0.0
2017-Sep-15 15:29N 33°44' W 118°17'0 0.0
2017-Sep-15 15:00N 33°44' W 118°17'0 0.0
2017-Sep-15 14:27N 33°44' W 118°17'0 0.0
2017-Sep-15 14:00N 33°44' W 118°17'0 0.0
2017-Sep-15 13:29N 33°44' W 118°17'0 0.0
2017-Sep-15 13:00N 33°44' W 118°17'0 0.0
2017-Sep-15 12:30N 33°44' W 118°17'1 2.9
2017-Sep-15 12:00N 33°45' W 118°16'0 0.0
2017-Sep-15 11:30N 33°45' W 118°16'0 0.4
2017-Sep-15 10:59N 33°45' W 118°16'0 0.0
2017-Sep-15 10:30N 33°45' W 118°16'0 0.0
2017-Sep-15 10:00N 33°45' W 118°16'0 0.0
2017-Sep-15 09:30N 33°45' W 118°16'0 0.0
2017-Sep-15 08:59N 33°45' W 118°16'0 0.0
2017-Sep-15 08:30N 33°45' W 118°16'0 0.0
2017-Sep-15 07:58N 33°45' W 118°16'0 0.0
2017-Sep-15 07:29N 33°45' W 118°16'0 0.0
2017-Sep-15 07:00N 33°45' W 118°16'0 0.0
2017-Sep-15 06:30N 33°45' W 118°16'0 0.0
2017-Sep-15 05:59N 33°45' W 118°16'0 0.0
2017-Sep-15 05:30N 33°45' W 118°16'0 0.0
2017-Sep-15 04:59N 33°45' W 118°16'0 0.0
2017-Sep-15 04:30N 33°45' W 118°16'3 2.6
2017-Sep-15 03:25N 33°44' W 118°13'2 3.9
2017-Sep-15 03:00N 33°46' W 118°13'0 0.2
2017-Sep-15 01:30N 33°46' W 118°14'0 0.0
2017-Sep-15 00:59N 33°46' W 118°14'0 0.0
2017-Sep-15 00:27N 33°46' W 118°14'1 3.3
2017-Sep-15 00:00N 33°46' W 118°15'1 1.9
2017-Sep-14 23:30N 33°46' W 118°17'0 0.7
2017-Sep-14 23:01N 33°45' W 118°16'2 3.4
2017-Sep-14 22:29N 33°43' W 118°16'1 2.7
2017-Sep-14 22:00N 33°43' W 118°15'2 3.4
2017-Sep-14 21:31N 33°44' W 118°17'0 0.0
2017-Sep-14 21:00N 33°44' W 118°17'0 0.0
2017-Sep-14 20:30N 33°44' W 118°17'1 1.3
2017-Sep-14 20:00N 33°44' W 118°17'1 1.4
2017-Sep-14 19:30N 33°45' W 118°16'0 0.7
2017-Sep-14 19:00N 33°45' W 118°17'1 1.0
2017-Sep-14 18:29N 33°46' W 118°17'1 2.3
2017-Sep-14 18:01N 33°45' W 118°16'1 2.2
2017-Sep-14 17:30N 33°44' W 118°17'0 0.0
2017-Sep-14 17:00N 33°44' W 118°17'0 0.0
2017-Sep-14 16:30N 33°44' W 118°17'0 0.0
2017-Sep-14 15:58N 33°44' W 118°17'0 0.0
2017-Sep-14 15:30N 33°44' W 118°17'0 0.0
2017-Sep-14 15:00N 33°44' W 118°17'0 0.0
2017-Sep-14 14:30N 33°44' W 118°17'0 0.0
2017-Sep-14 13:28N 33°44' W 118°17'0 0.0
2017-Sep-14 13:00N 33°44' W 118°17'1 1.5
2017-Sep-14 12:30N 33°43' W 118°16'3 5.4
2017-Sep-14 11:58N 33°45' W 118°13'3 2.4
2017-Sep-14 10:51N 33°43' W 118°16'1 3.2
2017-Sep-14 10:29N 33°44' W 118°17'0 0.0
2017-Sep-14 09:58N 33°44' W 118°17'0 0.0
2017-Sep-14 09:29N 33°44' W 118°17'0 0.0
2017-Sep-14 09:00N 33°44' W 118°17'0 0.0
2017-Sep-14 08:30N 33°44' W 118°17'0 0.0
2017-Sep-14 08:00N 33°44' W 118°17'0 0.0
2017-Sep-14 07:30N 33°44' W 118°17'0 0.0
2017-Sep-14 07:00N 33°44' W 118°17'0 0.0
2017-Sep-14 06:21N 33°44' W 118°17'0 0.0
2017-Sep-14 05:47N 33°44' W 118°17'0 0.0
2017-Sep-14 05:30N 33°44' W 118°17'0 0.0
2017-Sep-14 05:00N 33°44' W 118°17'0 0.0
2017-Sep-14 04:30N 33°44' W 118°17'0 0.0
2017-Sep-14 04:00N 33°44' W 118°17'0 0.0
2017-Sep-14 03:30N 33°44' W 118°17'0 0.0
2017-Sep-14 03:00N 33°44' W 118°17'0 0.0
2017-Sep-14 02:30N 33°44' W 118°17'0 0.0
2017-Sep-14 02:00N 33°44' W 118°17'0 0.0
2017-Sep-14 01:30N 33°44' W 118°17'0 0.0
2017-Sep-14 00:04N 33°44' W 118°17'0 3.1
2017-Sep-14 00:00N 33°44' W 118°16'0 0.7
2017-Sep-13 23:30N 33°44' W 118°16'0 0.1
2017-Sep-13 22:59N 33°44' W 118°16'0 0.5
2017-Sep-13 22:30N 33°44' W 118°17'0 0.8
2017-Sep-13 22:00N 33°44' W 118°17'0 0.0
2017-Sep-13 21:30N 33°44' W 118°17'0 0.0
2017-Sep-13 21:00N 33°44' W 118°17'0 0.0
2017-Sep-13 20:30N 33°44' W 118°17'0 0.0
2017-Sep-13 20:00N 33°44' W 118°17'0 0.0
2017-Sep-13 19:30N 33°44' W 118°17'0 0.0
2017-Sep-13 19:00N 33°44' W 118°17'0 0.0
2017-Sep-13 18:30N 33°44' W 118°17'0 0.0
2017-Sep-13 18:00N 33°44' W 118°17'0 0.0
2017-Sep-13 17:30N 33°44' W 118°17'0 0.0
2017-Sep-13 17:00N 33°44' W 118°17'0 0.0
2017-Sep-13 16:30N 33°44' W 118°17'0 0.0
2017-Sep-13 15:59N 33°44' W 118°17'0 0.0
2017-Sep-13 15:29N 33°44' W 118°17'0 0.0
2017-Sep-13 15:00N 33°44' W 118°17'0 0.0
2017-Sep-13 14:30N 33°44' W 118°17'0 0.0
2017-Sep-13 14:00N 33°44' W 118°17'2 3.2
2017-Sep-13 13:30N 33°45' W 118°16'1 1.8
2017-Sep-13 13:00N 33°46' W 118°15'1 2.7
2017-Sep-13 12:30N 33°45' W 118°16'2 4.7
2017-Sep-13 12:00N 33°43' W 118°15'1 1.2
2017-Sep-13 11:30N 33°43' W 118°14'0 0.7
2017-Sep-13 11:00N 33°43' W 118°14'2 3.6
2017-Sep-13 10:30N 33°44' W 118°16'0 0.5
2017-Sep-13 09:59N 33°44' W 118°17'0 0.0
2017-Sep-13 09:30N 33°44' W 118°17'0 0.0
2017-Sep-13 09:00N 33°44' W 118°17'0 0.0
2017-Sep-13 08:30N 33°44' W 118°17'0 0.0
2017-Sep-13 08:00N 33°44' W 118°17'0 0.0
2017-Sep-13 07:30N 33°44' W 118°17'0 0.0
2017-Sep-13 07:00N 33°44' W 118°17'0 0.0
2017-Sep-13 06:30N 33°44' W 118°17'0 0.0
2017-Sep-13 05:50N 33°44' W 118°17'0 0.0
2017-Sep-13 05:30N 33°44' W 118°17'0 0.0
2017-Sep-13 05:00N 33°44' W 118°17'0 0.0
2017-Sep-13 04:30N 33°44' W 118°17'0 0.0
2017-Sep-13 04:00N 33°44' W 118°17'0 0.0
2017-Sep-13 03:30N 33°44' W 118°17'0 0.0
2017-Sep-13 03:00N 33°44' W 118°17'0 0.0
2017-Sep-13 02:30N 33°44' W 118°17'0 0.0
2017-Sep-13 02:00N 33°44' W 118°17'0 0.0
2017-Sep-13 01:30N 33°44' W 118°17'0 0.0
2017-Sep-13 01:00N 33°44' W 118°17'0 0.0
2017-Sep-13 00:30N 33°44' W 118°17'0 0.0
2017-Sep-12 23:53N 33°44' W 118°17'0 0.0
2017-Sep-12 23:30N 33°44' W 118°17'0 0.0
2017-Sep-12 23:00N 33°44' W 118°17'0 0.0
2017-Sep-12 22:30N 33°44' W 118°17'0 0.0
2017-Sep-12 22:00N 33°44' W 118°17'0 0.0
2017-Sep-12 21:30N 33°44' W 118°17'0 0.0
2017-Sep-12 21:00N 33°44' W 118°17'0 0.0
2017-Sep-12 20:30N 33°44' W 118°17'0 0.0
2017-Sep-12 20:00N 33°44' W 118°17'0 0.0
2017-Sep-12 19:30N 33°44' W 118°17'0 0.0
2017-Sep-12 14:20N 33°44' W 118°17'0 0.0
2017-Sep-12 14:00N 33°44' W 118°17'2 4.1
2017-Sep-12 13:29N 33°46' W 118°15'1 2.8
2017-Sep-12 13:00N 33°46' W 118°14'0 0.8
2017-Sep-12 12:30N 33°46' W 118°13'1 3.0
2017-Sep-12 12:00N 33°45' W 118°13'2 4.4
2017-Sep-12 11:30N 33°44' W 118°11'4 7.1
2017-Sep-12 11:00N 33°43' W 118°15'3 6.7
2017-Sep-12 10:30N 33°46' W 118°17'0 0.0
2017-Sep-12 10:00N 33°46' W 118°17'0 0.0
2017-Sep-12 09:30N 33°46' W 118°17'0 0.0
2017-Sep-12 09:00N 33°46' W 118°17'0 0.0
2017-Sep-12 08:30N 33°46' W 118°17'0 0.0
2017-Sep-12 08:00N 33°46' W 118°17'0 0.0
2017-Sep-12 07:30N 33°46' W 118°17'0 0.0
2017-Sep-12 07:00N 33°46' W 118°17'0 0.0
2017-Sep-12 06:30N 33°46' W 118°17'0 0.0
2017-Sep-12 06:00N 33°46' W 118°17'0 0.0
2017-Sep-12 05:30N 33°46' W 118°17'0 0.0
2017-Sep-12 05:00N 33°46' W 118°17'0 0.0
2017-Sep-12 04:31N 33°46' W 118°17'0 0.0
2017-Sep-12 04:00N 33°46' W 118°17'0 0.0
2017-Sep-12 03:30N 33°46' W 118°17'0 0.0
2017-Sep-12 03:00N 33°46' W 118°17'0 0.0
2017-Sep-12 02:30N 33°46' W 118°17'0 0.0
2017-Sep-12 02:00N 33°46' W 118°17'0 0.0
2017-Sep-12 01:30N 33°46' W 118°17'0 0.0
2017-Sep-12 01:00N 33°46' W 118°17'0 0.0
2017-Sep-12 00:30N 33°46' W 118°17'0 0.0
2017-Sep-12 00:00N 33°46' W 118°17'1 3.0
2017-Sep-11 23:30N 33°44' W 118°17'1 2.2
2017-Sep-11 23:00N 33°44' W 118°15'2 4.5
2017-Sep-11 22:31N 33°45' W 118°13'0 0.5
2017-Sep-11 22:00N 33°45' W 118°13'0 0.0
2017-Sep-11 21:30N 33°45' W 118°13'0 0.0
2017-Sep-11 21:00N 33°45' W 118°13'0 0.0
2017-Sep-11 20:30N 33°45' W 118°13'0 0.0
2017-Sep-11 20:00N 33°45' W 118°13'0 0.0
2017-Sep-11 19:30N 33°45' W 118°13'0 0.0
2017-Sep-11 19:00N 33°45' W 118°13'0 0.0
2017-Sep-11 18:30N 33°45' W 118°13'0 0.0
2017-Sep-11 18:00N 33°45' W 118°13'1 2.3
2017-Sep-11 17:30N 33°44' W 118°12'  
Track history (hours):
 
Tides and Currents Weather Stations Pressure Air Temp Water Temp Dewpoint Dewpoint Depression Visibility Wind Speed Wind Dir Waves Ship Positions

Sarah

Owner: Brusco Tug & Barge, Inc., Longview, WA. More information available from US FCC via Universal Licensing System and Coast Guard Vessel Documentation Center.

Last reported at 2017-Sep-21 17:30 UTC. Time now 2017-Sep-21 17:59 UTC.
Position N 33°46' W 118°16'.

Length 24 m.

Type: Tug. MMSI: 367702770.

Date/timePositionNaut miles runAvg speedWind from/ knotsBaromVisibWave heightAir tempDewpointWater temp
2017-Sep-21 17:30N 33°46' W 118°16'0 0.2
2017-Sep-21 17:00N 33°46' W 118°16'0 0.6
2017-Sep-21 16:30N 33°45' W 118°16'2 4.2
2017-Sep-21 15:59N 33°43' W 118°16'3 5.6
2017-Sep-21 15:28N 33°44' W 118°13'0 0.2
2017-Sep-21 15:00N 33°44' W 118°13'3 5.2
2017-Sep-21 14:27N 33°44' W 118°16'2 4.0
2017-Sep-21 13:57N 33°46' W 118°16'0 0.0
2017-Sep-21 13:28N 33°46' W 118°16'1 1.5
2017-Sep-21 13:00N 33°45' W 118°16'2 5.0
2017-Sep-21 12:30N 33°43' W 118°15'4 8.6
2017-Sep-21 12:00N 33°44' W 118°10'2 5.0
2017-Sep-21 11:30N 33°44' W 118°13'2 3.7
2017-Sep-21 11:00N 33°46' W 118°14'0 0.1
2017-Sep-21 10:29N 33°46' W 118°14'0 0.1
2017-Sep-21 09:59N 33°46' W 118°14'1 2.1
2017-Sep-21 09:29N 33°45' W 118°13'3 6.3
2017-Sep-21 08:57N 33°43' W 118°16'1 0.2
2017-Sep-21 03:49N 33°44' W 118°17'0 0.0
2017-Sep-21 03:30N 33°44' W 118°17'0 0.0
2017-Sep-21 03:00N 33°44' W 118°17'0 0.0
2017-Sep-21 02:30N 33°44' W 118°17'0 0.0
2017-Sep-21 02:00N 33°44' W 118°17'0 0.0
2017-Sep-21 01:30N 33°44' W 118°17'0 0.0
2017-Sep-21 01:00N 33°44' W 118°17'0 0.0
2017-Sep-21 00:30N 33°44' W 118°17'0 0.0
2017-Sep-21 00:00N 33°44' W 118°17'0 0.0
2017-Sep-20 23:30N 33°44' W 118°17'0 0.0
2017-Sep-20 23:00N 33°44' W 118°17'0 0.0
2017-Sep-20 22:30N 33°44' W 118°17'0 0.0
2017-Sep-20 22:00N 33°44' W 118°17'0 0.0
2017-Sep-20 21:30N 33°44' W 118°17'0 0.0
2017-Sep-20 21:00N 33°44' W 118°17'0 0.0
2017-Sep-20 20:30N 33°44' W 118°17'0 0.0
2017-Sep-20 20:00N 33°44' W 118°17'0 0.9
2017-Sep-20 19:30N 33°44' W 118°17'1 2.4
2017-Sep-20 19:00N 33°45' W 118°17'1 1.2
2017-Sep-20 18:30N 33°46' W 118°16'0 0.7
2017-Sep-20 18:00N 33°46' W 118°17'1 1.7
2017-Sep-20 17:30N 33°45' W 118°16'1 2.5
2017-Sep-20 17:00N 33°44' W 118°17'0 0.0
2017-Sep-20 16:30N 33°44' W 118°17'0 0.0
2017-Sep-20 16:00N 33°44' W 118°17'0 0.0
2017-Sep-20 15:30N 33°44' W 118°17'0 0.0
2017-Sep-20 15:00N 33°44' W 118°17'0 0.0
2017-Sep-20 14:00N 33°44' W 118°17'0 0.0
2017-Sep-20 13:24N 33°44' W 118°17'0 0.0
2017-Sep-20 12:55N 33°44' W 118°17'0 0.0
2017-Sep-20 12:27N 33°44' W 118°17'0 0.0
2017-Sep-20 12:00N 33°44' W 118°17'0 0.0
2017-Sep-20 11:28N 33°44' W 118°17'0 0.0
2017-Sep-20 11:00N 33°44' W 118°17'0 0.0
2017-Sep-20 10:30N 33°44' W 118°17'0 0.0
2017-Sep-20 10:00N 33°44' W 118°17'0 0.0
2017-Sep-20 09:28N 33°44' W 118°17'0 0.0
2017-Sep-20 09:00N 33°44' W 118°17'0 0.0
2017-Sep-20 08:26N 33°44' W 118°17'0 0.0
2017-Sep-20 07:58N 33°44' W 118°17'0 0.0
2017-Sep-19 16:12N 33°44' W 118°17'0 0.0
2017-Sep-19 15:42N 33°44' W 118°17'0 0.0
2017-Sep-19 15:29N 33°44' W 118°17'0 0.0
2017-Sep-19 14:55N 33°44' W 118°17'0 0.0
2017-Sep-19 14:02N 33°44' W 118°17'0 0.0
2017-Sep-19 14:00N 33°44' W 118°17'0 0.0
2017-Sep-19 13:29N 33°44' W 118°17'5 2.2
2017-Sep-19 11:21N 33°44' W 118°11'4 8.4
2017-Sep-19 10:56N 33°43' W 118°15'1 0.1
2017-Sep-18 23:36N 33°44' W 118°17'0 3.3
2017-Sep-18 23:30N 33°44' W 118°17'3 5.4
2017-Sep-18 23:01N 33°46' W 118°14'1 1.4
2017-Sep-18 22:31N 33°46' W 118°13'1 2.1
2017-Sep-18 21:59N 33°45' W 118°13'2 4.9
2017-Sep-18 21:31N 33°44' W 118°11'0 0.4
2017-Sep-18 21:00N 33°44' W 118°11'2 3.1
2017-Sep-18 20:30N 33°45' W 118°12'1 2.7
2017-Sep-18 19:59N 33°44' W 118°11'1 2.4
2017-Sep-18 19:29N 33°44' W 118°13'2 4.9
2017-Sep-18 19:00N 33°46' W 118°15'1 1.8
2017-Sep-18 18:30N 33°46' W 118°16'0 0.3
2017-Sep-18 18:00N 33°46' W 118°16'1 2.6
2017-Sep-18 17:30N 33°45' W 118°17'2 4.6
2017-Sep-18 16:59N 33°43' W 118°15'0 0.0
2017-Sep-18 16:29N 33°43' W 118°15'2 3.3
2017-Sep-18 15:57N 33°44' W 118°16'0 0.2
2017-Sep-18 15:17N 33°44' W 118°17'0 0.0
2017-Sep-18 14:59N 33°44' W 118°17'0 0.0
2017-Sep-18 14:21N 33°44' W 118°17'0 0.0
2017-Sep-18 14:00N 33°44' W 118°17'0 0.0
2017-Sep-18 13:29N 33°44' W 118°17'0 0.0
2017-Sep-18 12:57N 33°44' W 118°17'3 5.1
2017-Sep-18 12:22N 33°43' W 118°13'1 2.9
2017-Sep-18 11:53N 33°45' W 118°12'3 4.7
2017-Sep-18 11:21N 33°43' W 118°14'2 0.2
2017-Sep-17 21:51N 33°44' W 118°17'2 6.5
2017-Sep-17 21:30N 33°43' W 118°14'2 4.3
2017-Sep-17 21:00N 33°44' W 118°12'1 1.2
2017-Sep-17 20:30N 33°44' W 118°13'1 2.1
2017-Sep-17 20:00N 33°44' W 118°12'3 6.7
2017-Sep-17 19:30N 33°43' W 118°15'1 2.4
2017-Sep-17 19:00N 33°44' W 118°16'0 0.0
2017-Sep-17 18:29N 33°44' W 118°16'0 0.2
2017-Sep-17 17:59N 33°44' W 118°17'0 0.0
2017-Sep-17 17:30N 33°44' W 118°17'0 0.0
2017-Sep-17 16:58N 33°44' W 118°17'0 0.0
2017-Sep-17 16:22N 33°44' W 118°17'0 0.0
2017-Sep-17 15:54N 33°44' W 118°17'0 0.0
2017-Sep-17 15:09N 33°44' W 118°17'0 0.0
2017-Sep-17 14:53N 33°44' W 118°17'0 0.0
2017-Sep-17 14:17N 33°44' W 118°17'0 0.0
2017-Sep-17 14:00N 33°44' W 118°17'0 0.0
2017-Sep-17 12:41N 33°44' W 118°17'0 0.0
2017-Sep-17 12:26N 33°44' W 118°17'0 0.0
2017-Sep-17 11:49N 33°44' W 118°17'0 0.0
2017-Sep-17 11:30N 33°44' W 118°17'0 0.0
2017-Sep-17 10:51N 33°44' W 118°17'0 0.0
2017-Sep-17 10:24N 33°44' W 118°17'0 0.0
2017-Sep-17 09:59N 33°44' W 118°17'0 0.0
2017-Sep-17 09:30N 33°44' W 118°17'0 0.0
2017-Sep-17 08:55N 33°44' W 118°17'0 0.0
2017-Sep-17 08:30N 33°44' W 118°17'0 0.0
2017-Sep-17 08:00N 33°44' W 118°17'0 0.0
2017-Sep-17 07:28N 33°44' W 118°17'0 0.0
2017-Sep-17 07:00N 33°44' W 118°17'0 0.0
2017-Sep-17 06:26N 33°44' W 118°17'0 0.0
2017-Sep-17 06:00N 33°44' W 118°17'0 0.0
2017-Sep-17 05:30N 33°44' W 118°17'0 0.0
2017-Sep-17 05:00N 33°44' W 118°17'0 0.0
2017-Sep-17 04:30N 33°44' W 118°17'0 0.0
2017-Sep-17 04:00N 33°44' W 118°17'0 0.0
2017-Sep-17 03:29N 33°44' W 118°17'0 0.0
2017-Sep-17 03:00N 33°44' W 118°17'0 0.0
2017-Sep-17 02:30N 33°44' W 118°17'0 0.0
2017-Sep-17 02:00N 33°44' W 118°17'0 0.0
2017-Sep-17 01:30N 33°44' W 118°17'0 0.0
2017-Sep-17 00:59N 33°44' W 118°17'0 0.0
2017-Sep-17 00:30N 33°44' W 118°17'0 0.0
2017-Sep-16 21:33N 33°44' W 118°17'0 0.0
2017-Sep-16 21:31N 33°44' W 118°17'0 0.0
2017-Sep-16 21:01N 33°44' W 118°17'1 2.1
2017-Sep-16 20:29N 33°43' W 118°16'3 6.7
2017-Sep-16 20:00N 33°45' W 118°12'0 0.0
2017-Sep-16 19:29N 33°45' W 118°12'2 2.8
2017-Sep-16 18:57N 33°44' W 118°11'2 4.2
2017-Sep-16 18:30N 33°45' W 118°13'0 0.0
2017-Sep-16 18:00N 33°45' W 118°13'0 0.0
2017-Sep-16 17:28N 33°45' W 118°13'0 1.1
2017-Sep-16 17:01N 33°45' W 118°13'0 0.2
2017-Sep-16 16:29N 33°45' W 118°13'1 2.7
2017-Sep-16 16:00N 33°44' W 118°13'1 0.7
2017-Sep-16 15:12N 33°44' W 118°12'3 2.8
2017-Sep-16 14:00N 33°44' W 118°17'0 0.0
2017-Sep-16 13:09N 33°44' W 118°17'0 0.0
2017-Sep-16 12:56N 33°44' W 118°17'0 0.0
2017-Sep-16 12:29N 33°44' W 118°17'0 0.0
2017-Sep-16 12:01N 33°44' W 118°17'0 0.0
2017-Sep-16 11:27N 33°44' W 118°17'0 0.0
2017-Sep-16 10:55N 33°44' W 118°17'0 0.0
2017-Sep-16 10:30N 33°44' W 118°17'0 0.0
2017-Sep-16 09:57N 33°44' W 118°17'0 0.0
2017-Sep-16 09:30N 33°44' W 118°17'0 0.0
2017-Sep-16 09:00N 33°44' W 118°17'0 0.0
2017-Sep-16 08:30N 33°44' W 118°17'0 0.0
2017-Sep-16 07:54N 33°44' W 118°17'0 0.0
2017-Sep-16 07:30N 33°44' W 118°17'0 0.0
2017-Sep-16 07:00N 33°44' W 118°17'0 0.0
2017-Sep-16 06:31N 33°44' W 118°17'0 0.0
2017-Sep-16 06:00N 33°44' W 118°17'0 0.0
2017-Sep-16 05:31N 33°44' W 118°17'0 0.0
2017-Sep-16 05:01N 33°44' W 118°17'0 0.0
2017-Sep-16 04:30N 33°44' W 118°17'0 0.0
2017-Sep-16 04:00N 33°44' W 118°17'0 0.0
2017-Sep-16 03:31N 33°44' W 118°17'0 0.0
2017-Sep-16 03:00N 33°44' W 118°17'0 0.0
2017-Sep-16 02:30N 33°44' W 118°17'3 5.7
2017-Sep-16 02:00N 33°44' W 118°13'1 2.9
2017-Sep-16 01:30N 33°45' W 118°15'0 0.0
2017-Sep-16 01:00N 33°45' W 118°15'1 2.6
2017-Sep-16 00:31N 33°45' W 118°13'3 6.0
2017-Sep-16 00:00N 33°44' W 118°16'0 0.3
2017-Sep-15 23:30N 33°44' W 118°17'0 0.0
2017-Sep-15 23:01N 33°44' W 118°17'0 0.0
2017-Sep-15 22:31N 33°44' W 118°17'0 0.0
2017-Sep-15 22:00N 33°44' W 118°17'0 0.0
2017-Sep-15 21:30N 33°44' W 118°17'0 0.0
2017-Sep-15 21:00N 33°44' W 118°17'0 0.0
2017-Sep-15 20:31N 33°44' W 118°17'0 0.0
2017-Sep-15 20:00N 33°44' W 118°17'0 0.0
2017-Sep-15 19:30N 33°44' W 118°17'0 0.0
2017-Sep-15 19:00N 33°44' W 118°17'0 0.0
2017-Sep-15 18:30N 33°44' W 118°17'0 0.0
2017-Sep-15 18:00N 33°44' W 118°17'0 0.0
2017-Sep-15 16:52N 33°44' W 118°17'0 0.0
2017-Sep-15 16:30N 33°44' W 118°17'0 0.0
2017-Sep-15 15:56N 33°44' W 118°17'0 0.0
2017-Sep-15 15:29N 33°44' W 118°17'0 0.0
2017-Sep-15 15:00N 33°44' W 118°17'0 0.0
2017-Sep-15 14:27N 33°44' W 118°17'0 0.0
2017-Sep-15 14:00N 33°44' W 118°17'0 0.0
2017-Sep-15 13:29N 33°44' W 118°17'0 0.0
2017-Sep-15 13:00N 33°44' W 118°17'0 0.0
2017-Sep-15 12:30N 33°44' W 118°17'1 2.9
2017-Sep-15 12:00N 33°45' W 118°16'0 0.0
2017-Sep-15 11:30N 33°45' W 118°16'0 0.4
2017-Sep-15 10:59N 33°45' W 118°16'0 0.0
2017-Sep-15 10:30N 33°45' W 118°16'0 0.0
2017-Sep-15 10:00N 33°45' W 118°16'0 0.0
2017-Sep-15 09:30N 33°45' W 118°16'0 0.0
2017-Sep-15 08:59N 33°45' W 118°16'0 0.0
2017-Sep-15 08:30N 33°45' W 118°16'0 0.0
2017-Sep-15 07:58N 33°45' W 118°16'0 0.0
2017-Sep-15 07:29N 33°45' W 118°16'0 0.0
2017-Sep-15 07:00N 33°45' W 118°16'0 0.0
2017-Sep-15 06:30N 33°45' W 118°16'0 0.0
2017-Sep-15 05:59N 33°45' W 118°16'0 0.0
2017-Sep-15 05:30N 33°45' W 118°16'0 0.0
2017-Sep-15 04:59N 33°45' W 118°16'0 0.0
2017-Sep-15 04:30N 33°45' W 118°16'3 2.6
2017-Sep-15 03:25N 33°44' W 118°13'2 3.9
2017-Sep-15 03:00N 33°46' W 118°13'0 0.2
2017-Sep-15 01:30N 33°46' W 118°14'0 0.0
2017-Sep-15 00:59N 33°46' W 118°14'0 0.0
2017-Sep-15 00:27N 33°46' W 118°14'1 3.3
2017-Sep-15 00:00N 33°46' W 118°15'1 1.9
2017-Sep-14 23:30N 33°46' W 118°17'0 0.7
2017-Sep-14 23:01N 33°45' W 118°16'2 3.4
2017-Sep-14 22:29N 33°43' W 118°16'1 2.7
2017-Sep-14 22:00N 33°43' W 118°15'2 3.4
2017-Sep-14 21:31N 33°44' W 118°17'0 0.0
2017-Sep-14 21:00N 33°44' W 118°17'0 0.0
2017-Sep-14 20:30N 33°44' W 118°17'1 1.3
2017-Sep-14 20:00N 33°44' W 118°17'1 1.4
2017-Sep-14 19:30N 33°45' W 118°16'0 0.7
2017-Sep-14 19:00N 33°45' W 118°17'1 1.0
2017-Sep-14 18:29N 33°46' W 118°17'1 2.3
2017-Sep-14 18:01N 33°45' W 118°16'1 2.2
2017-Sep-14 17:30N 33°44' W 118°17'0 0.0
2017-Sep-14 17:00N 33°44' W 118°17'0 0.0
2017-Sep-14 16:30N 33°44' W 118°17'0 0.0
2017-Sep-14 15:58N 33°44' W 118°17'0 0.0
2017-Sep-14 15:30N 33°44' W 118°17'0 0.0
2017-Sep-14 15:00N 33°44' W 118°17'0 0.0
2017-Sep-14 14:30N 33°44' W 118°17'0 0.0
2017-Sep-14 13:28N 33°44' W 118°17'0 0.0
2017-Sep-14 13:00N 33°44' W 118°17'1 1.5
2017-Sep-14 12:30N 33°43' W 118°16'3 5.4
2017-Sep-14 11:58N 33°45' W 118°13'3 2.4
2017-Sep-14 10:51N 33°43' W 118°16'1 3.2
2017-Sep-14 10:29N 33°44' W 118°17'0 0.0
2017-Sep-14 09:58N 33°44' W 118°17'0 0.0
2017-Sep-14 09:29N 33°44' W 118°17'0 0.0
2017-Sep-14 09:00N 33°44' W 118°17'0 0.0
2017-Sep-14 08:30N 33°44' W 118°17'0 0.0
2017-Sep-14 08:00N 33°44' W 118°17'0 0.0
2017-Sep-14 07:30N 33°44' W 118°17'0 0.0
2017-Sep-14 07:00N 33°44' W 118°17'0 0.0
2017-Sep-14 06:21N 33°44' W 118°17'0 0.0
2017-Sep-14 05:47N 33°44' W 118°17'0 0.0
2017-Sep-14 05:30N 33°44' W 118°17'0 0.0
2017-Sep-14 05:00N 33°44' W 118°17'0 0.0
2017-Sep-14 04:30N 33°44' W 118°17'0 0.0
2017-Sep-14 04:00N 33°44' W 118°17'0 0.0
2017-Sep-14 03:30N 33°44' W 118°17'0 0.0
2017-Sep-14 03:00N 33°44' W 118°17'0 0.0
2017-Sep-14 02:30N 33°44' W 118°17'0 0.0
2017-Sep-14 02:00N 33°44' W 118°17'0 0.0
2017-Sep-14 01:30N 33°44' W 118°17'0 0.0
2017-Sep-14 00:04N 33°44' W 118°17'0 3.1
2017-Sep-14 00:00N 33°44' W 118°16'0 0.7
2017-Sep-13 23:30N 33°44' W 118°16'0 0.1
2017-Sep-13 22:59N 33°44' W 118°16'0 0.5
2017-Sep-13 22:30N 33°44' W 118°17'0 0.8
2017-Sep-13 22:00N 33°44' W 118°17'0 0.0
2017-Sep-13 21:30N 33°44' W 118°17'0 0.0
2017-Sep-13 21:00N 33°44' W 118°17'0 0.0
2017-Sep-13 20:30N 33°44' W 118°17'0 0.0
2017-Sep-13 20:00N 33°44' W 118°17'0 0.0
2017-Sep-13 19:30N 33°44' W 118°17'0 0.0
2017-Sep-13 19:00N 33°44' W 118°17'0 0.0
2017-Sep-13 18:30N 33°44' W 118°17'0 0.0
2017-Sep-13 18:00N 33°44' W 118°17'0 0.0
2017-Sep-13 17:30N 33°44' W 118°17'0 0.0
2017-Sep-13 17:00N 33°44' W 118°17'0 0.0
2017-Sep-13 16:30N 33°44' W 118°17'0 0.0
2017-Sep-13 15:59N 33°44' W 118°17'0 0.0
2017-Sep-13 15:29N 33°44' W 118°17'0 0.0
2017-Sep-13 15:00N 33°44' W 118°17'0 0.0
2017-Sep-13 14:30N 33°44' W 118°17'0 0.0
2017-Sep-13 14:00N 33°44' W 118°17'2 3.2
2017-Sep-13 13:30N 33°45' W 118°16'1 1.8
2017-Sep-13 13:00N 33°46' W 118°15'1 2.7
2017-Sep-13 12:30N 33°45' W 118°16'2 4.7
2017-Sep-13 12:00N 33°43' W 118°15'1 1.2
2017-Sep-13 11:30N 33°43' W 118°14'0 0.7
2017-Sep-13 11:00N 33°43' W 118°14'2 3.6
2017-Sep-13 10:30N 33°44' W 118°16'0 0.5
2017-Sep-13 09:59N 33°44' W 118°17'0 0.0
2017-Sep-13 09:30N 33°44' W 118°17'0 0.0
2017-Sep-13 09:00N 33°44' W 118°17'0 0.0
2017-Sep-13 08:30N 33°44' W 118°17'0 0.0
2017-Sep-13 08:00N 33°44' W 118°17'0 0.0
2017-Sep-13 07:30N 33°44' W 118°17'0 0.0
2017-Sep-13 07:00N 33°44' W 118°17'0 0.0
2017-Sep-13 06:30N 33°44' W 118°17'0 0.0
2017-Sep-13 05:50N 33°44' W 118°17'0 0.0
2017-Sep-13 05:30N 33°44' W 118°17'0 0.0
2017-Sep-13 05:00N 33°44' W 118°17'0 0.0
2017-Sep-13 04:30N 33°44' W 118°17'0 0.0
2017-Sep-13 04:00N 33°44' W 118°17'0 0.0
2017-Sep-13 03:30N 33°44' W 118°17'0 0.0
2017-Sep-13 03:00N 33°44' W 118°17'0 0.0
2017-Sep-13 02:30N 33°44' W 118°17'0 0.0
2017-Sep-13 02:00N 33°44' W 118°17'0 0.0
2017-Sep-13 01:30N 33°44' W 118°17'0 0.0
2017-Sep-13 01:00N 33°44' W 118°17'0 0.0
2017-Sep-13 00:30N 33°44' W 118°17'0 0.0
2017-Sep-12 23:53N 33°44' W 118°17'0 0.0
2017-Sep-12 23:30N 33°44' W 118°17'0 0.0
2017-Sep-12 23:00N 33°44' W 118°17'0 0.0
2017-Sep-12 22:30N 33°44' W 118°17'0 0.0
2017-Sep-12 22:00N 33°44' W 118°17'0 0.0
2017-Sep-12 21:30N 33°44' W 118°17'0 0.0
2017-Sep-12 21:00N 33°44' W 118°17'0 0.0
2017-Sep-12 20:30N 33°44' W 118°17'0 0.0
2017-Sep-12 20:00N 33°44' W 118°17'0 0.0
2017-Sep-12 19:30N 33°44' W 118°17'0 0.0
2017-Sep-12 14:20N 33°44' W 118°17'0 0.0
2017-Sep-12 14:00N 33°44' W 118°17'2 4.1
2017-Sep-12 13:29N 33°46' W 118°15'1 2.8
2017-Sep-12 13:00N 33°46' W 118°14'0 0.8
2017-Sep-12 12:30N 33°46' W 118°13'1 3.0
2017-Sep-12 12:00N 33°45' W 118°13'2 4.4
2017-Sep-12 11:30N 33°44' W 118°11'4 7.1
2017-Sep-12 11:00N 33°43' W 118°15'3 6.7
2017-Sep-12 10:30N 33°46' W 118°17'0 0.0
2017-Sep-12 10:00N 33°46' W 118°17'0 0.0
2017-Sep-12 09:30N 33°46' W 118°17'0 0.0
2017-Sep-12 09:00N 33°46' W 118°17'0 0.0
2017-Sep-12 08:30N 33°46' W 118°17'0 0.0
2017-Sep-12 08:00N 33°46' W 118°17'0 0.0
2017-Sep-12 07:30N 33°46' W 118°17'0 0.0
2017-Sep-12 07:00N 33°46' W 118°17'0 0.0
2017-Sep-12 06:30N 33°46' W 118°17'0 0.0
2017-Sep-12 06:00N 33°46' W 118°17'0 0.0
2017-Sep-12 05:30N 33°46' W 118°17'0 0.0
2017-Sep-12 05:00N 33°46' W 118°17'0 0.0
2017-Sep-12 04:31N 33°46' W 118°17'0 0.0
2017-Sep-12 04:00N 33°46' W 118°17'0 0.0
2017-Sep-12 03:30N 33°46' W 118°17'0 0.0
2017-Sep-12 03:00N 33°46' W 118°17'0 0.0
2017-Sep-12 02:30N 33°46' W 118°17'0 0.0
2017-Sep-12 02:00N 33°46' W 118°17'0 0.0
2017-Sep-12 01:30N 33°46' W 118°17'0 0.0
2017-Sep-12 01:00N 33°46' W 118°17'0 0.0
2017-Sep-12 00:30N 33°46' W 118°17'0 0.0
2017-Sep-12 00:00N 33°46' W 118°17'1 3.0
2017-Sep-11 23:30N 33°44' W 118°17'1 2.2
2017-Sep-11 23:00N 33°44' W 118°15'2 4.5
2017-Sep-11 22:31N 33°45' W 118°13'0 0.5
2017-Sep-11 22:00N 33°45' W 118°13'0 0.0
2017-Sep-11 21:30N 33°45' W 118°13'0 0.0
2017-Sep-11 21:00N 33°45' W 118°13'0 0.0
2017-Sep-11 20:30N 33°45' W 118°13'0 0.0
2017-Sep-11 20:00N 33°45' W 118°13'0 0.0
2017-Sep-11 19:30N 33°45' W 118°13'0 0.0
2017-Sep-11 19:00N 33°45' W 118°13'0 0.0
2017-Sep-11 18:30N 33°45' W 118°13'0 0.0
2017-Sep-11 18:00N 33°45' W 118°13'1 2.3
2017-Sep-11 17:30N 33°44' W 118°12'  

Dump ship's entire track history